createdAt,value
2018-08-22T00:00:13.965Z,8.53
2018-08-22T00:02:42.209Z,8.33
2018-08-22T00:05:10.456Z,8.47
2018-08-22T00:07:38.701Z,10.73
2018-08-22T00:10:06.974Z,8.93
2018-08-22T00:12:35.241Z,8.03
2018-08-22T00:15:03.542Z,8.63
2018-08-22T00:17:32.055Z,9.20
2018-08-22T00:20:00.291Z,8.60
2018-08-22T00:22:28.600Z,11.17
2018-08-22T00:24:56.799Z,9.07
2018-08-22T00:27:25.034Z,9.00
2018-08-22T00:29:53.270Z,8.23
2018-08-22T00:32:21.508Z,8.77
2018-08-22T00:34:49.751Z,9.97
2018-08-22T00:37:18.163Z,8.97
2018-08-22T00:39:46.409Z,9.40
2018-08-22T00:42:14.666Z,9.60
2018-08-22T00:44:42.962Z,9.97
2018-08-22T00:47:11.200Z,9.73
2018-08-22T00:49:39.456Z,9.63
2018-08-22T00:52:07.715Z,10.60
2018-08-22T00:54:35.969Z,10.27
2018-08-22T00:57:04.966Z,10.20
2018-08-22T00:59:33.243Z,10.43
2018-08-22T01:02:01.487Z,13.27
2018-08-22T01:04:29.739Z,10.33
2018-08-22T01:06:57.976Z,9.93
2018-08-22T01:09:26.209Z,9.77
2018-08-22T01:11:54.483Z,10.20
2018-08-22T01:14:22.722Z,9.80
2018-08-22T01:16:50.980Z,9.87
2018-08-22T01:19:19.225Z,10.00
2018-08-22T01:21:47.482Z,10.73
2018-08-22T01:24:15.732Z,9.60
2018-08-22T01:26:43.986Z,10.50
2018-08-22T01:29:12.234Z,10.90
2018-08-22T01:31:40.818Z,10.60
2018-08-22T01:34:09.077Z,10.97
2018-08-22T01:36:37.354Z,10.27
2018-08-22T01:39:07.166Z,10.13
2018-08-22T01:41:35.450Z,11.07
2018-08-22T01:44:03.709Z,10.53
2018-08-22T01:46:31.946Z,10.47
2018-08-22T01:49:00.191Z,10.63
2018-08-22T01:51:28.469Z,11.37
2018-08-22T01:53:56.717Z,10.03
2018-08-22T01:56:30.110Z,10.53
2018-08-22T01:58:58.457Z,10.30
2018-08-22T02:01:26.644Z,10.47
2018-08-22T02:03:54.929Z,10.00
2018-08-22T02:06:23.187Z,10.53
2018-08-22T02:08:51.458Z,11.47
2018-08-22T02:11:19.719Z,11.07
2018-08-22T02:13:47.974Z,11.03
2018-08-22T02:16:16.237Z,11.20
2018-08-22T02:18:44.495Z,10.87
2018-08-22T02:21:12.766Z,11.50
2018-08-22T02:23:41.032Z,10.40
2018-08-22T02:26:09.302Z,11.27
2018-08-22T02:28:37.579Z,11.03
2018-08-22T02:31:05.865Z,10.70
2018-08-22T02:33:34.137Z,11.60
2018-08-22T02:36:02.404Z,11.90
2018-08-22T02:38:30.671Z,10.63
2018-08-22T02:40:58.930Z,11.10
2018-08-22T02:43:27.289Z,12.27
2018-08-22T02:45:55.554Z,10.53
2018-08-22T02:48:23.823Z,10.03
2018-08-22T02:50:52.099Z,10.70
2018-08-22T02:53:20.406Z,11.10
2018-08-22T02:55:48.671Z,11.00
2018-08-22T02:58:17.044Z,10.37
2018-08-22T03:00:45.297Z,10.73
2018-08-22T03:03:13.566Z,11.07
2018-08-22T03:05:41.827Z,10.47
2018-08-22T03:08:10.086Z,10.37
2018-08-22T03:10:38.354Z,10.80
2018-08-22T03:13:06.737Z,10.77
2018-08-22T03:15:34.995Z,10.87
2018-08-22T03:18:03.275Z,11.83
2018-08-22T03:20:31.529Z,11.00
2018-08-22T03:22:59.792Z,10.67
2018-08-22T03:25:28.059Z,12.97
2018-08-22T03:27:56.318Z,11.20
2018-08-22T03:30:24.594Z,11.53
2018-08-22T03:32:52.871Z,11.17
2018-08-22T03:35:21.176Z,12.50
2018-08-22T03:37:49.450Z,11.63
2018-08-22T03:40:17.714Z,11.23
2018-08-22T03:42:45.978Z,12.67
2018-08-22T03:45:14.242Z,10.43
2018-08-22T03:47:42.497Z,13.50
2018-08-22T03:50:10.770Z,10.90
2018-08-22T03:52:39.128Z,13.53
2018-08-22T03:55:07.362Z,10.93
2018-08-22T03:57:35.610Z,11.30
2018-08-22T04:00:03.885Z,12.40
2018-08-22T04:02:32.137Z,11.70
2018-08-22T04:05:00.558Z,12.40
2018-08-22T04:07:28.815Z,11.97
2018-08-22T04:09:57.060Z,11.83
2018-08-22T04:12:25.319Z,12.00
2018-08-22T04:14:53.721Z,11.83
2018-08-22T04:17:26.262Z,11.60
2018-08-22T04:19:54.504Z,11.90
2018-08-22T04:22:22.772Z,11.67
2018-08-22T04:24:51.010Z,11.67
2018-08-22T04:27:19.266Z,11.07
2018-08-22T04:29:47.506Z,13.10
2018-08-22T04:32:15.762Z,11.87
2018-08-22T04:34:44.003Z,11.60
2018-08-22T04:37:12.237Z,12.00
2018-08-22T04:39:40.482Z,11.37
2018-08-22T04:42:08.721Z,10.83
2018-08-22T04:44:36.968Z,11.00
2018-08-22T04:47:05.253Z,12.03
2018-08-22T04:49:34.864Z,14.07
2018-08-22T04:52:03.373Z,11.43
2018-08-22T04:54:31.981Z,11.87
2018-08-22T04:57:00.482Z,11.37
2018-08-22T04:59:28.847Z,11.33
2018-08-22T05:01:57.145Z,11.73
2018-08-22T05:04:25.538Z,11.93
2018-08-22T05:06:54.025Z,12.37
2018-08-22T05:09:22.325Z,11.40
2018-08-22T05:11:50.654Z,11.80
2018-08-22T05:14:19.102Z,12.03
2018-08-22T05:16:47.605Z,11.23
2018-08-22T05:19:15.884Z,11.73
2018-08-22T05:21:44.167Z,11.20
2018-08-22T05:24:12.467Z,10.40
2018-08-22T05:26:40.733Z,11.47
2018-08-22T05:29:09.012Z,10.47
2018-08-22T05:31:37.283Z,10.50
2018-08-22T05:34:05.825Z,10.53
2018-08-22T05:36:34.211Z,11.27
2018-08-22T05:39:02.490Z,12.63
2018-08-22T05:41:30.775Z,11.93
2018-08-22T05:43:59.052Z,12.33
2018-08-22T05:46:27.310Z,11.17
2018-08-22T05:48:55.586Z,11.37
2018-08-22T05:51:23.863Z,11.97
2018-08-22T05:53:52.284Z,10.77
2018-08-22T05:56:20.556Z,10.63
2018-08-22T05:58:48.982Z,12.17
2018-08-22T06:01:17.296Z,12.73
2018-08-22T06:03:45.660Z,11.27
2018-08-22T06:06:15.063Z,11.70
2018-08-22T06:08:43.591Z,11.80
2018-08-22T06:11:11.886Z,11.23
2018-08-22T06:13:40.198Z,11.97
2018-08-22T06:16:08.600Z,11.93
2018-08-22T06:18:36.947Z,11.10
2018-08-22T06:21:05.354Z,11.97
2018-08-22T06:23:33.626Z,11.90
2018-08-22T06:26:02.009Z,11.00
2018-08-22T06:28:31.107Z,11.00
2018-08-22T06:31:00.082Z,10.67
2018-08-22T06:33:28.731Z,12.03
2018-08-22T06:35:57.014Z,9.73
2018-08-22T06:38:25.423Z,10.80
2018-08-22T06:40:53.771Z,10.57
2018-08-22T06:43:22.086Z,9.40
2018-08-22T06:45:50.472Z,10.47
2018-08-22T06:48:18.742Z,10.70
2018-08-22T06:50:47.018Z,8.47
2018-08-22T06:53:15.310Z,9.07
2018-08-22T06:55:50.484Z,8.23
2018-08-22T06:58:19.298Z,10.00
2018-08-22T07:00:47.980Z,8.23
2018-08-22T07:03:17.277Z,7.77
2018-08-22T07:05:46.003Z,8.40
2018-08-22T07:08:15.363Z,9.07
2018-08-22T07:10:44.145Z,7.63
2018-08-22T07:13:13.026Z,9.87
2018-08-22T07:15:41.968Z,8.27
2018-08-22T07:18:11.000Z,10.33
2018-08-22T07:20:40.063Z,8.60
2018-08-22T07:23:08.884Z,6.93
2018-08-22T07:25:38.061Z,7.10
2018-08-22T07:28:07.179Z,7.03
2018-08-22T07:30:36.090Z,6.77
2018-08-22T07:33:05.044Z,6.17
2018-08-22T07:35:34.296Z,6.33
2018-08-22T07:38:03.294Z,7.00
2018-08-22T07:40:32.077Z,7.72
2018-08-22T07:43:02.075Z,6.90
2018-08-22T07:45:30.931Z,5.08
2018-08-22T07:47:59.871Z,5.05
2018-08-22T07:50:29.197Z,4.75
2018-08-22T07:53:03.042Z,5.28
2018-08-22T07:55:35.264Z,5.12
2018-08-22T07:58:04.822Z,6.92
2018-08-22T08:00:33.985Z,5.10
2018-08-22T08:03:03.390Z,4.65
2018-08-22T08:05:32.732Z,4.95
2018-08-22T08:08:02.083Z,5.75
2018-08-22T08:10:33.953Z,6.08
2018-08-22T08:13:03.834Z,6.53
2018-08-22T08:15:33.247Z,5.10
2018-08-22T08:18:02.590Z,5.70
2018-08-22T08:20:32.222Z,4.47
2018-08-22T08:23:01.037Z,5.15
2018-08-22T08:25:30.171Z,4.62
2018-08-22T08:27:59.040Z,5.67
2018-08-22T08:30:27.835Z,7.25
2018-08-22T08:32:56.635Z,6.05
2018-08-22T08:35:25.648Z,9.68
2018-08-22T08:37:54.137Z,6.20
2018-08-22T08:40:22.828Z,7.30
2018-08-22T08:42:51.498Z,6.72
2018-08-22T08:45:20.382Z,4.75
2018-08-22T08:47:49.047Z,4.67
2018-08-22T08:50:18.202Z,5.03
2018-08-22T08:52:47.444Z,5.42
2018-08-22T08:55:17.077Z,7.95
2018-08-22T08:57:45.674Z,4.67
2018-08-22T09:00:14.154Z,6.37
2018-08-22T09:02:42.765Z,4.90
2018-08-22T09:05:11.368Z,4.55
2018-08-22T09:07:39.814Z,5.53
2018-08-22T09:10:08.432Z,5.15
2018-08-22T09:12:37.566Z,5.08
2018-08-22T09:15:07.354Z,5.87
2018-08-22T09:17:36.391Z,8.80
2018-08-22T09:20:07.423Z,6.30
2018-08-22T09:22:36.639Z,9.73
2018-08-22T09:25:05.166Z,5.10
2018-08-22T09:27:34.002Z,7.10
2018-08-22T09:30:02.871Z,6.87
2018-08-22T09:32:31.240Z,8.65
2018-08-22T09:35:00.297Z,6.47
2018-08-22T09:37:29.414Z,8.33
2018-08-22T09:39:58.074Z,6.78
2018-08-22T09:42:27.202Z,6.25
2018-08-22T09:44:58.148Z,8.78
2018-08-22T09:47:26.820Z,6.72
2018-08-22T09:49:55.611Z,5.53
2018-08-22T09:52:24.741Z,4.83
2018-08-22T09:55:07.206Z,7.37
2018-08-22T09:57:35.747Z,4.80
2018-08-22T10:00:07.960Z,4.97
2018-08-22T10:02:37.288Z,5.40
2018-08-22T10:05:05.770Z,6.72
2018-08-22T10:07:35.406Z,5.40
2018-08-22T10:10:04.091Z,7.17
2018-08-22T10:12:32.546Z,6.65
2018-08-22T10:15:01.404Z,5.58
2018-08-22T10:17:30.314Z,4.60
2018-08-22T10:19:58.873Z,5.35
2018-08-22T10:22:27.513Z,4.92
2018-08-22T10:24:56.039Z,5.97
2018-08-22T10:27:24.700Z,7.10
2018-08-22T10:29:53.445Z,5.10
2018-08-22T10:32:21.822Z,5.05
2018-08-22T10:34:50.486Z,5.60
2018-08-22T10:37:19.404Z,7.85
2018-08-22T10:39:48.611Z,5.00
2018-08-22T10:42:17.523Z,5.00
2018-08-22T10:44:46.431Z,7.30
2018-08-22T10:47:15.238Z,5.20
2018-08-22T10:49:44.184Z,5.03
2018-08-22T10:52:12.836Z,6.45
2018-08-22T10:54:41.607Z,8.03
2018-08-22T10:57:10.132Z,7.00
2018-08-22T10:59:38.966Z,6.70
2018-08-22T11:02:07.740Z,5.15
2018-08-22T11:04:36.333Z,5.35
2018-08-22T11:07:05.060Z,4.83
2018-08-22T11:09:33.573Z,7.15
2018-08-22T11:12:02.219Z,5.40
2018-08-22T11:14:30.799Z,5.50
2018-08-22T11:16:59.598Z,7.50
2018-08-22T11:19:28.522Z,5.25
2018-08-22T11:22:08.484Z,6.50
2018-08-22T11:24:48.464Z,5.65
2018-08-22T11:27:28.246Z,6.17
2018-08-22T11:30:07.988Z,5.00
2018-08-22T11:32:47.797Z,7.25
2018-08-22T11:35:15.063Z,5.33
2018-08-22T11:37:43.798Z,5.78
2018-08-22T11:40:13.097Z,7.53
2018-08-22T11:42:41.495Z,5.42
2018-08-22T11:45:10.785Z,6.95
2018-08-22T11:47:39.127Z,5.28
2018-08-22T11:50:10.082Z,5.60
2018-08-22T11:52:38.639Z,6.87
2018-08-22T11:55:07.145Z,5.60
2018-08-22T11:57:35.717Z,5.55
2018-08-22T12:00:04.846Z,5.75
2018-08-22T12:02:33.283Z,5.58
2018-08-22T12:05:02.216Z,5.80
2018-08-22T12:07:30.584Z,6.15
2018-08-22T12:09:59.119Z,5.45
2018-08-22T12:12:27.422Z,5.90
2018-08-22T12:14:55.888Z,7.60
2018-08-22T12:17:24.332Z,9.88
2018-08-22T12:19:52.785Z,5.92
2018-08-22T12:22:21.149Z,6.05
2018-08-22T12:24:49.668Z,5.70
2018-08-22T12:27:19.076Z,5.40
2018-08-22T12:29:47.425Z,6.75
2018-08-22T12:32:15.850Z,6.53
2018-08-22T12:34:44.476Z,6.30
2018-08-22T12:37:12.972Z,5.95
2018-08-22T12:39:41.415Z,6.60
2018-08-22T12:42:10.004Z,7.17
2018-08-22T12:44:38.530Z,6.35
2018-08-22T12:47:06.758Z,5.67
2018-08-22T12:49:35.249Z,6.55
2018-08-22T12:52:03.613Z,6.17
2018-08-22T12:54:32.062Z,9.68
2018-08-22T12:57:00.467Z,7.33
2018-08-22T12:59:28.852Z,7.17
2018-08-22T13:01:57.372Z,9.00
2018-08-22T13:04:25.787Z,6.47
2018-08-22T13:06:54.186Z,4.83
2018-08-22T13:09:22.563Z,4.90
2018-08-22T13:11:50.823Z,6.45
2018-08-22T13:14:19.121Z,5.37
2018-08-22T13:16:47.370Z,6.47
2018-08-22T13:19:15.714Z,5.20
2018-08-22T13:21:43.968Z,5.60
2018-08-22T13:24:12.294Z,5.20
2018-08-22T13:26:40.653Z,5.28
2018-08-22T13:29:08.923Z,8.88
2018-08-22T13:31:37.229Z,6.15
2018-08-22T13:34:05.909Z,7.70
2018-08-22T13:36:34.151Z,5.90
2018-08-22T13:39:02.690Z,5.97
2018-08-22T13:41:30.950Z,5.60
2018-08-22T13:43:59.204Z,5.05
2018-08-22T13:46:27.463Z,5.75
2018-08-22T13:48:55.718Z,9.40
2018-08-22T13:51:23.982Z,5.12
2018-08-22T13:53:52.360Z,5.25
2018-08-22T13:56:20.658Z,9.18
2018-08-22T13:58:48.892Z,5.87
2018-08-22T14:01:17.258Z,8.05
2018-08-22T14:03:45.878Z,7.20
2018-08-22T14:06:14.155Z,5.62
2018-08-22T14:08:42.511Z,5.33
2018-08-22T14:11:10.758Z,7.60
2018-08-22T14:13:39.058Z,5.20
2018-08-22T14:16:07.386Z,7.03
2018-08-22T14:18:35.579Z,5.95
2018-08-22T14:21:03.946Z,7.45
2018-08-22T14:23:32.210Z,5.70
2018-08-22T14:26:00.510Z,5.10
2018-08-22T14:28:28.754Z,6.30
2018-08-22T14:30:57.260Z,5.55
2018-08-22T14:33:25.537Z,7.08
2018-08-22T14:35:53.791Z,5.75
2018-08-22T14:38:22.057Z,8.10
2018-08-22T14:40:50.342Z,5.78
2018-08-22T14:43:18.662Z,5.55
2018-08-22T14:45:46.940Z,8.08
2018-08-22T14:48:15.214Z,4.42
2018-08-22T14:50:43.465Z,4.47
2018-08-22T14:53:12.022Z,5.87
2018-08-22T14:55:40.574Z,5.35
2018-08-22T14:58:08.964Z,5.50
2018-08-22T15:00:37.216Z,4.65
2018-08-22T15:03:05.909Z,6.72
2018-08-22T15:05:33.919Z,8.63
2018-08-22T15:08:02.207Z,5.08
2018-08-22T15:10:30.489Z,6.03
2018-08-22T15:12:58.803Z,9.40
2018-08-22T15:15:27.031Z,6.83
2018-08-22T15:17:55.326Z,4.60
2018-08-22T15:20:23.571Z,7.20
2018-08-22T15:22:51.837Z,4.75
2018-08-22T15:25:20.101Z,3.58
2018-08-22T15:27:48.954Z,5.53
2018-08-22T15:30:17.210Z,5.58
2018-08-22T15:32:45.770Z,3.98
2018-08-22T15:35:14.041Z,3.98
2018-08-22T15:37:42.322Z,8.43
2018-08-22T15:40:10.591Z,4.55
2018-08-22T15:42:38.856Z,4.05
2018-08-22T15:45:07.215Z,3.70
2018-08-22T15:47:35.528Z,4.80
2018-08-22T15:50:04.030Z,3.45
2018-08-22T15:52:32.315Z,5.42
2018-08-22T15:55:13.186Z,4.70
2018-08-22T15:57:54.180Z,6.40
2018-08-22T16:00:33.418Z,5.53
2018-08-22T16:03:02.826Z,3.90
2018-08-22T16:05:31.315Z,4.10
2018-08-22T16:08:00.120Z,4.50
2018-08-22T16:10:28.811Z,3.27
2018-08-22T16:12:57.193Z,4.58
2018-08-22T16:15:26.413Z,3.75
2018-08-22T16:17:55.834Z,4.75
2018-08-22T16:20:25.345Z,3.72
2018-08-22T16:22:53.938Z,5.50
2018-08-22T16:25:28.834Z,4.15
2018-08-22T16:27:57.214Z,3.67
2018-08-22T16:30:25.599Z,4.60
2018-08-22T16:32:55.515Z,5.10
2018-08-22T16:35:24.320Z,8.83
2018-08-22T16:38:02.209Z,8.60
2018-08-22T16:40:35.571Z,7.20
2018-08-22T16:43:05.235Z,7.65
2018-08-22T16:45:41.619Z,4.90
2018-08-22T16:48:11.169Z,4.67
2018-08-22T16:50:41.382Z,5.08
2018-08-22T16:53:11.297Z,5.65
2018-08-22T16:55:40.762Z,7.10
2018-08-22T16:58:09.864Z,4.80
2018-08-22T17:00:45.111Z,4.97
2018-08-22T17:03:14.262Z,7.33
2018-08-22T17:05:43.337Z,7.62
2018-08-22T17:08:12.709Z,6.05
2018-08-22T17:10:51.859Z,5.37
2018-08-22T17:13:28.712Z,5.75
2018-08-22T17:15:59.200Z,5.45
2018-08-22T17:18:28.192Z,5.58
2018-08-22T17:20:57.420Z,5.90
2018-08-22T17:23:25.718Z,5.45
2018-08-22T17:25:54.282Z,6.65
2018-08-22T17:28:27.932Z,4.62
2018-08-22T17:30:56.486Z,5.28
2018-08-22T17:33:29.530Z,5.22
2018-08-22T17:35:58.190Z,6.67
2018-08-22T17:38:26.710Z,4.85
2018-08-22T17:40:54.980Z,4.45
2018-08-22T17:43:23.262Z,4.30
2018-08-22T17:45:51.527Z,4.55
2018-08-22T17:48:21.203Z,5.10
2018-08-22T17:50:49.861Z,5.55
2018-08-22T17:53:18.144Z,5.65
2018-08-22T17:55:46.483Z,7.37
2018-08-22T17:58:14.754Z,5.78
2018-08-22T18:00:43.051Z,9.40
2018-08-22T18:03:11.332Z,7.55
2018-08-22T18:05:39.610Z,4.28
2018-08-22T18:08:08.932Z,6.87
2018-08-22T18:10:39.241Z,4.50
2018-08-22T18:13:13.002Z,5.12
2018-08-22T18:15:41.353Z,4.75
2018-08-22T18:18:09.611Z,6.77
2018-08-22T18:20:39.364Z,7.85
2018-08-22T18:23:07.862Z,7.58
2018-08-22T18:25:39.704Z,9.03
2018-08-22T18:28:08.016Z,14.40
2018-08-22T18:30:36.305Z,8.23
2018-08-22T18:33:04.571Z,4.77
2018-08-22T18:35:32.831Z,9.60
2018-08-22T18:38:01.116Z,11.63
2018-08-22T18:40:30.400Z,10.47
2018-08-22T18:43:01.033Z,9.83
2018-08-22T18:45:29.614Z,8.73
2018-08-22T18:47:58.328Z,13.47
2018-08-22T18:50:26.743Z,8.73
2018-08-22T18:52:57.454Z,8.27
2018-08-22T18:55:27.371Z,6.07
2018-08-22T18:57:56.793Z,8.27
2018-08-22T19:00:25.470Z,13.53
2018-08-22T19:02:55.123Z,7.30
2018-08-22T19:05:32.437Z,10.63
2018-08-22T19:08:07.973Z,6.60
2018-08-22T19:10:37.487Z,9.77
2018-08-22T19:13:22.134Z,11.07
2018-08-22T19:15:54.427Z,15.50
2018-08-22T19:18:24.070Z,12.87
2018-08-22T19:20:54.689Z,10.80
2018-08-22T19:23:23.229Z,7.27
2018-08-22T19:25:52.373Z,9.60
2018-08-22T19:28:20.611Z,5.73
2018-08-22T19:30:49.013Z,6.10
2018-08-22T19:33:19.798Z,10.40
2018-08-22T19:35:48.368Z,7.50
2018-08-22T19:38:18.353Z,10.60
2018-08-22T19:40:46.956Z,6.33
2018-08-22T19:43:15.333Z,7.37
2018-08-22T19:45:43.597Z,8.03
2018-08-22T19:48:18.071Z,11.93
2018-08-22T19:50:46.366Z,10.47
2018-08-22T19:53:14.641Z,8.43
2018-08-22T19:55:42.927Z,10.27
2018-08-22T19:58:11.235Z,10.43
2018-08-22T20:00:39.674Z,12.43
2018-08-22T20:03:07.946Z,11.90
2018-08-22T20:05:50.404Z,10.70
2018-08-22T20:08:21.233Z,12.77
2018-08-22T20:10:49.563Z,11.13
2018-08-22T20:13:20.190Z,10.00
2018-08-22T20:15:49.000Z,10.07
2018-08-22T20:18:18.435Z,8.90
2018-08-22T20:20:46.911Z,12.03
2018-08-22T20:23:15.221Z,12.70
2018-08-22T20:25:43.474Z,14.00
2018-08-22T20:28:11.790Z,12.73
2018-08-22T20:30:40.080Z,12.00
2018-08-22T20:33:09.588Z,12.33
2018-08-22T20:35:40.759Z,12.20
2018-08-22T20:38:10.427Z,14.33
2018-08-22T20:40:39.239Z,12.67
2018-08-22T20:43:14.212Z,13.40
2018-08-22T20:45:44.176Z,14.57
2018-08-22T20:48:13.546Z,12.07
2018-08-22T20:50:43.039Z,14.70
2018-08-22T20:53:14.416Z,21.23
2018-08-22T20:55:42.817Z,20.33
2018-08-22T20:58:30.784Z,14.93
2018-08-22T21:00:59.968Z,11.00
2018-08-22T21:03:28.358Z,17.63
2018-08-22T21:05:57.354Z,15.43
2018-08-22T21:08:25.676Z,18.40
2018-08-22T21:10:54.266Z,11.60
2018-08-22T21:13:30.070Z,10.53
2018-08-22T21:15:59.030Z,11.93
2018-08-22T21:18:27.626Z,9.53
2018-08-22T21:20:56.010Z,13.73
2018-08-22T21:23:24.704Z,13.50
2018-08-22T21:25:53.072Z,12.77
2018-08-22T21:28:28.527Z,19.57
2018-08-22T21:31:00.926Z,9.93
2018-08-22T21:33:30.368Z,16.53
2018-08-22T21:35:58.623Z,11.43
2018-08-22T21:38:26.891Z,11.13
2018-08-22T21:40:55.187Z,9.33
2018-08-22T21:43:23.481Z,8.23
2018-08-22T21:45:52.010Z,8.70
2018-08-22T21:48:23.010Z,9.90
2018-08-22T21:50:51.266Z,8.27
2018-08-22T21:53:20.526Z,9.37
2018-08-22T21:55:49.455Z,10.07
2018-08-22T21:58:17.729Z,10.63
2018-08-22T22:00:46.020Z,7.77
2018-08-22T22:03:14.860Z,8.93
2018-08-22T22:05:47.323Z,7.47
2018-08-22T22:08:15.578Z,8.17
2018-08-22T22:10:43.834Z,9.40
2018-08-22T22:13:12.158Z,7.87
2018-08-22T22:15:46.631Z,7.27
2018-08-22T22:18:14.903Z,8.77
2018-08-22T22:20:46.666Z,9.17
2018-08-22T22:23:14.926Z,7.40
2018-08-22T22:25:43.632Z,11.17
2018-08-22T22:28:11.894Z,9.27
2018-08-22T22:30:40.158Z,7.33
2018-08-22T22:33:08.415Z,8.73
2018-08-22T22:35:36.689Z,10.63
2018-08-22T22:38:07.858Z,7.77
2018-08-22T22:40:36.466Z,8.63
2018-08-22T22:43:07.633Z,8.73
2018-08-22T22:45:36.225Z,8.90
2018-08-22T22:48:04.488Z,8.63
2018-08-22T22:50:32.770Z,11.30
2018-08-22T22:53:01.048Z,8.13
2018-08-22T22:55:29.335Z,7.00
2018-08-22T22:57:57.606Z,10.73
2018-08-22T23:00:25.916Z,7.43
2018-08-22T23:02:59.536Z,8.97
2018-08-22T23:05:31.528Z,7.80
2018-08-22T23:08:01.439Z,7.83
2018-08-22T23:10:29.719Z,8.83
2018-08-22T23:12:57.979Z,7.77
2018-08-22T23:15:27.461Z,7.53
2018-08-22T23:17:57.170Z,8.60
2018-08-22T23:20:36.021Z,8.93
2018-08-22T23:23:08.751Z,7.83
2018-08-22T23:25:37.016Z,6.93
2018-08-22T23:28:05.296Z,7.20
2018-08-22T23:30:36.638Z,8.87
2018-08-22T23:33:05.649Z,8.77
2018-08-22T23:35:34.950Z,8.73
2018-08-22T23:38:09.241Z,8.57
2018-08-22T23:40:37.990Z,8.10
2018-08-22T23:43:06.273Z,7.90
2018-08-22T23:45:36.373Z,8.77
2018-08-22T23:48:05.543Z,9.43
2018-08-22T23:50:46.210Z,8.33
2018-08-22T23:53:14.487Z,8.13
2018-08-22T23:55:42.762Z,8.20
2018-08-22T23:58:11.038Z,9.03
